Time;durP1;ratioP1;P1;durP2;ratioP2;P2;SDS_P1;SDS_P2;PMS_P1;PMS_P2;Temp;Humidity;BMP_temperature;BMP_pressure;BME280_temperature;BME280_humidity;BME280_pressure;Samples;Min_cycle;Max_cycle;Signal;HPM_P1;HPM_P2
2022/11/16 00:01:48;;;;;;;11.27;10.23;;;11.40;99.90;;;;;;5018827;28;20196;-88
2022/11/16 00:04:14;;;;;;;11.30;10.30;;;11.40;99.90;;;;;;5040986;28;20255;-90
2022/11/16 00:06:40;;;;;;;11.37;10.27;;;11.40;99.90;;;;;;5033937;28;20310;-89
2022/11/16 00:09:21;;;;;;;11.43;10.33;;;11.40;99.90;;;;;;5036927;28;20195;-89
2022/11/16 00:11:51;;;;;;;12.77;11.50;;;11.40;99.90;;;;;;5035069;28;20198;-87
2022/11/16 00:14:18;;;;;;;11.53;10.43;;;11.50;99.90;;;;;;5018637;28;20255;-87
2022/11/16 00:16:44;;;;;;;11.70;10.70;;;11.50;99.90;;;;;;5036370;28;20281;-88
2022/11/16 00:19:11;;;;;;;10.80;9.90;;;11.50;99.90;;;;;;5025860;28;20237;-87
2022/11/16 00:21:37;;;;;;;10.87;9.97;;;11.40;99.90;;;;;;5038882;28;20186;-89
2022/11/16 00:24:02;;;;;;;11.27;10.27;;;11.40;99.90;;;;;;5027073;28;20195;-90
2022/11/16 00:26:28;;;;;;;11.93;10.70;;;11.50;99.90;;;;;;5025099;28;20198;-87
2022/11/16 00:28:55;;;;;;;10.80;9.93;;;11.50;99.90;;;;;;5038945;28;20266;-87
2022/11/16 00:31:22;;;;;;;10.20;9.30;;;11.40;99.90;;;;;;5046018;28;20172;-89
2022/11/16 00:33:48;;;;;;;9.60;8.77;;;11.40;99.90;;;;;;5051276;28;20212;-87
2022/11/16 00:36:14;;;;;;;10.43;9.50;;;11.40;99.90;;;;;;5038109;28;20216;-85
2022/11/16 00:38:41;;;;;;;10.17;9.37;;;11.50;99.90;;;;;;5034771;28;20638;-86
2022/11/16 00:41:07;;;;;;;9.47;8.67;;;11.40;99.90;;;;;;5034144;28;20215;-87
2022/11/16 00:43:34;;;;;;;11.37;10.37;;;11.40;99.90;;;;;;5026011;28;20191;-89
2022/11/16 00:46:00;;;;;;;18.43;16.83;;;11.40;99.90;;;;;;5016652;28;20213;-88
2022/11/16 00:48:26;;;;;;;10.77;9.87;;;11.40;99.90;;;;;;5032898;28;20214;-91
2022/11/16 00:50:54;;;;;;;10.87;9.83;;;11.40;99.90;;;;;;5036309;28;20201;-88
2022/11/16 00:53:20;;;;;;;11.27;10.20;;;11.50;99.90;;;;;;5022344;28;20206;-89
2022/11/16 00:55:46;;;;;;;11.37;10.43;;;11.50;99.90;;;;;;5036119;28;20221;-86
2022/11/16 00:58:13;;;;;;;11.53;10.40;;;11.40;99.90;;;;;;5018567;28;20225;-87
2022/11/16 01:00:40;;;;;;;11.17;10.17;;;11.40;99.90;;;;;;5033348;28;20184;-88
2022/11/16 01:03:06;;;;;;;10.80;9.70;;;11.40;99.90;;;;;;5016337;28;20199;-87
2022/11/16 01:05:32;;;;;;;10.77;9.87;;;11.50;99.90;;;;;;5043487;28;20198;-87
2022/11/16 01:07:57;;;;;;;10.60;9.60;;;11.60;99.90;;;;;;5039785;28;20218;-88
2022/11/16 01:10:25;;;;;;;10.97;9.87;;;11.50;99.90;;;;;;5033388;28;20187;-89
2022/11/16 01:12:53;;;;;;;10.87;9.87;;;11.40;99.90;;;;;;5031503;28;20305;-87
2022/11/16 01:15:20;;;;;;;11.67;10.67;;;11.30;99.90;;;;;;5032182;28;20212;-90
2022/11/16 01:17:47;;;;;;;11.07;10.10;;;11.10;99.90;;;;;;5041234;28;20232;-88
2022/11/16 01:20:15;;;;;;;11.13;9.93;;;11.20;99.90;;;;;;5034219;28;20187;-85
2022/11/16 01:22:41;;;;;;;10.70;9.87;;;11.20;99.90;;;;;;5032051;28;20269;-84
2022/11/16 01:25:08;;;;;;;10.97;9.93;;;11.30;99.90;;;;;;5029654;28;20186;-88
2022/11/16 01:27:34;;;;;;;11.00;10.10;;;11.30;99.90;;;;;;5038129;28;20214;-87
2022/11/16 01:29:59;;;;;;;10.50;9.60;;;11.30;99.90;;;;;;5031058;28;20328;-87
2022/11/16 01:32:25;;;;;;;11.17;10.17;;;11.30;99.90;;;;;;5035372;28;20221;-89
2022/11/16 01:34:51;;;;;;;11.00;10.03;;;11.30;99.90;;;;;;5034069;28;20209;-87
2022/11/16 01:37:17;;;;;;;10.67;9.67;;;11.30;99.90;;;;;;5035027;28;20225;-85
2022/11/16 01:39:43;;;;;;;11.37;10.37;;;11.20;99.90;;;;;;5032450;28;20205;-85
2022/11/16 01:42:25;;;;;;;10.43;9.43;;;11.30;99.90;;;;;;5018333;28;20192;-86
2022/11/16 01:45:15;;;;;;;11.57;10.53;;;11.30;99.90;;;;;;5031936;28;20193;-84
2022/11/16 01:47:41;;;;;;;11.93;10.13;;;11.10;99.90;;;;;;5034648;28;20254;-84
2022/11/16 01:50:11;;;;;;;12.03;10.93;;;11.00;99.90;;;;;;5036003;28;20667;-88
2022/11/16 01:52:41;;;;;;;10.43;9.50;;;11.00;99.90;;;;;;5036890;28;20197;-88
2022/11/16 01:55:07;;;;;;;9.53;8.70;;;11.00;99.90;;;;;;5033498;28;20224;-86
2022/11/16 01:57:41;;;;;;;10.33;9.37;;;11.00;99.90;;;;;;5039294;28;20213;-85
2022/11/16 02:00:09;;;;;;;9.50;8.70;;;11.20;99.90;;;;;;5036424;28;20178;-88
2022/11/16 02:02:34;;;;;;;11.53;10.40;;;11.20;99.90;;;;;;5038630;28;20854;-88
2022/11/16 02:05:01;;;;;;;10.97;9.90;;;11.30;99.90;;;;;;5033419;28;20193;-87
2022/11/16 02:07:30;;;;;;;10.60;9.67;;;11.50;99.90;;;;;;5037405;28;20216;-87
2022/11/16 02:10:12;;;;;;;11.63;10.43;;;11.50;99.90;;;;;;5040185;28;20196;-90
2022/11/16 02:12:48;;;;;;;11.83;10.40;;;11.50;99.90;;;;;;5038661;28;20268;-85
2022/11/16 02:15:56;;;;;;;11.37;10.37;;;11.60;99.90;;;;;;5017697;28;20210;-86
2022/11/16 02:18:34;;;;;;;12.63;10.93;;;11.50;99.90;;;;;;5037755;28;20210;-87
2022/11/16 02:21:29;;;;;;;11.97;10.97;;;11.50;99.90;;;;;;5035538;28;20622;-85
2022/11/16 02:24:03;;;;;;;14.00;12.67;;;11.40;99.90;;;;;;5038469;28;20236;-87
2022/11/16 02:26:47;;;;;;;12.73;11.63;;;11.40;99.90;;;;;;5042712;28;20192;-84
2022/11/16 02:29:21;;;;;;;14.07;12.67;;;11.40;99.90;;;;;;5035689;28;20242;-85
2022/11/16 02:31:56;;;;;;;14.80;13.40;;;11.10;99.90;;;;;;5038524;28;20740;-88
2022/11/16 02:34:23;;;;;;;14.93;13.53;;;10.90;99.90;;;;;;5040226;28;20207;-87
2022/11/16 02:36:53;;;;;;;14.33;13.13;;;10.90;99.90;;;;;;5039044;28;20204;-86
2022/11/16 02:39:23;;;;;;;14.37;13.17;;;10.80;99.90;;;;;;5035174;28;20198;-85
2022/11/16 02:41:51;;;;;;;13.10;11.90;;;10.80;99.90;;;;;;5040547;28;20260;-88
2022/11/16 02:44:24;;;;;;;14.27;12.87;;;10.80;99.90;;;;;;5038808;28;20200;-86
2022/11/16 02:46:56;;;;;;;13.83;12.53;;;10.60;99.90;;;;;;5037670;28;20258;-84
2022/11/16 02:49:23;;;;;;;14.07;12.87;;;10.60;99.90;;;;;;5043127;28;20672;-87
2022/11/16 02:51:51;;;;;;;14.53;13.20;;;10.60;99.90;;;;;;5023970;28;20224;-90
2022/11/16 02:54:21;;;;;;;13.27;12.07;;;10.60;99.90;;;;;;5029565;28;20302;-88
2022/11/16 02:56:46;;;;;;;13.30;12.13;;;10.60;99.90;;;;;;5041265;28;20251;-86
2022/11/16 02:59:13;;;;;;;13.70;12.40;;;10.50;99.90;;;;;;5039792;28;20194;-85
2022/11/16 03:01:42;;;;;;;13.07;11.97;;;10.60;99.90;;;;;;5039534;28;20185;-89
2022/11/16 03:04:17;;;;;;;13.37;12.13;;;10.60;99.90;;;;;;5021952;28;20229;-86
2022/11/16 03:06:47;;;;;;;12.23;11.10;;;10.70;99.90;;;;;;5022650;28;20223;-84
2022/11/16 03:09:23;;;;;;;11.90;10.70;;;10.60;99.90;;;;;;5042166;28;20188;-86
2022/11/16 03:11:59;;;;;;;12.30;11.27;;;10.60;99.90;;;;;;5037813;28;20210;-86
2022/11/16 03:14:44;;;;;;;11.80;10.70;;;10.60;99.90;;;;;;5037481;28;20237;-84
2022/11/16 03:17:33;;;;;;;12.03;10.87;;;10.60;99.90;;;;;;5041411;28;20269;-84
2022/11/16 03:20:14;;;;;;;12.83;11.70;;;10.60;99.90;;;;;;5038989;28;20202;-87
2022/11/16 03:22:47;;;;;;;12.10;11.10;;;10.60;99.90;;;;;;5037302;28;20206;-87
2022/11/16 03:25:19;;;;;;;11.23;10.23;;;10.60;99.90;;;;;;5037870;28;20221;-84
2022/11/16 03:27:44;;;;;;;12.00;10.80;;;10.70;99.90;;;;;;5038734;28;20246;-86
2022/11/16 03:30:15;;;;;;;11.90;10.80;;;10.60;99.90;;;;;;5034519;28;20201;-89
2022/11/16 03:33:06;;;;;;;11.97;10.87;;;10.60;99.90;;;;;;5034825;28;20544;-89
2022/11/16 03:35:45;;;;;;;11.60;10.50;;;10.60;99.90;;;;;;5035522;28;20213;-88
2022/11/16 03:38:13;;;;;;;10.70;9.73;;;10.70;99.90;;;;;;5021866;28;20228;-84
2022/11/16 03:40:42;;;;;;;10.80;9.80;;;10.60;99.90;;;;;;5038667;28;20187;-87
2022/11/16 03:43:09;;;;;;;10.73;9.73;;;10.60;99.90;;;;;;5035500;28;20191;-87
2022/11/16 03:45:35;;;;;;;10.40;9.60;;;10.60;99.90;;;;;;5030957;28;20185;-85
2022/11/16 03:48:01;;;;;;;10.87;9.90;;;10.70;99.90;;;;;;5038476;28;20212;-88
2022/11/16 03:50:26;;;;;;;10.37;9.47;;;10.70;99.90;;;;;;5038696;28;20842;-87
2022/11/16 03:52:52;;;;;;;9.77;8.97;;;10.60;99.90;;;;;;5038947;28;20189;-87
2022/11/16 03:55:18;;;;;;;9.63;8.73;;;10.70;99.90;;;;;;5042611;28;20427;-84
2022/11/16 03:57:43;;;;;;;10.10;9.10;;;10.70;99.90;;;;;;5039923;28;20206;-87
2022/11/16 04:00:10;;;;;;;9.40;8.67;;;10.70;99.90;;;;;;5032633;28;20199;-87
2022/11/16 04:02:35;;;;;;;10.20;9.30;;;10.70;99.90;;;;;;5035080;28;20278;-88
2022/11/16 04:24:30;;;;;;;9.57;6.90;;;10.80;99.90;;;;;;5039405;28;20221;-85
2022/11/16 04:29:50;;;;;;;7.90;7.20;;;10.80;99.90;;;;;;5032470;28;20196;-86
2022/11/16 04:37:53;;;;;;;8.10;7.40;;;10.80;99.90;;;;;;5033301;28;20233;-87
2022/11/16 04:40:22;;;;;;;7.40;6.80;;;10.80;99.90;;;;;;5033248;28;20197;-88
2022/11/16 04:43:06;;;;;;;8.00;7.20;;;10.90;99.90;;;;;;5034523;28;20228;-85
2022/11/16 04:48:18;;;;;;;7.80;7.00;;;10.90;99.90;;;;;;5036306;28;20269;-86
2022/11/16 04:50:46;;;;;;;7.60;7.00;;;10.90;99.90;;;;;;5042264;28;20255;-85
2022/11/16 04:53:12;;;;;;;7.80;7.07;;;11.00;99.90;;;;;;5036341;28;20247;-85
2022/11/16 04:55:37;;;;;;;8.80;8.10;;;11.10;99.90;;;;;;5038113;28;20199;-88
2022/11/16 04:58:04;;;;;;;8.80;8.00;;;11.00;99.90;;;;;;5036730;28;20248;-88
2022/11/16 05:00:30;;;;;;;9.37;8.57;;;11.00;99.90;;;;;;5034082;28;20191;-88
2022/11/16 05:02:55;;;;;;;8.97;8.17;;;10.80;99.90;;;;;;5019327;28;20198;-85
2022/11/16 05:05:21;;;;;;;8.47;7.67;;;10.90;99.90;;;;;;5042430;28;20202;-84
2022/11/16 05:07:47;;;;;;;9.53;8.70;;;11.00;99.90;;;;;;5037311;28;20292;-83
2022/11/16 05:10:13;;;;;;;10.10;9.10;;;11.00;99.90;;;;;;5045509;28;20189;-86
2022/11/16 05:12:39;;;;;;;10.80;9.67;;;11.00;99.90;;;;;;5036581;28;20191;-85
2022/11/16 05:15:06;;;;;;;10.53;9.57;;;10.90;99.90;;;;;;5032187;28;20211;-87
2022/11/16 05:17:31;;;;;;;10.93;9.93;;;10.90;99.90;;;;;;5036827;28;20605;-86
2022/11/16 05:22:41;;;;;;;13.50;12.30;;;10.90;99.90;;;;;;5043920;28;20193;-88
2022/11/16 05:25:08;;;;;;;11.67;10.57;;;10.90;99.90;;;;;;5042192;28;20640;-86
2022/11/16 05:27:34;;;;;;;11.27;10.27;;;10.90;99.90;;;;;;5040344;28;20250;-88
2022/11/16 05:29:59;;;;;;;11.87;10.63;;;10.90;99.90;;;;;;5044799;28;20241;-87
2022/11/16 05:32:26;;;;;;;11.47;10.30;;;10.80;99.90;;;;;;5038238;28;20174;-88
2022/11/16 05:34:53;;;;;;;11.47;10.47;;;10.80;99.90;;;;;;5040264;28;20237;-86
2022/11/16 05:37:19;;;;;;;11.57;10.43;;;10.80;99.90;;;;;;5040161;28;20209;-88
2022/11/16 05:39:46;;;;;;;11.80;10.70;;;10.80;99.90;;;;;;5039824;28;20202;-85
2022/11/16 05:42:12;;;;;;;11.77;10.67;;;10.90;99.90;;;;;;5039186;28;20200;-85
2022/11/16 05:44:37;;;;;;;11.03;10.03;;;10.80;99.90;;;;;;5050481;28;20191;-87
2022/11/16 05:47:03;;;;;;;10.93;9.93;;;11.00;99.90;;;;;;5046278;28;20215;-87
2022/11/16 05:49:29;;;;;;;10.97;9.87;;;10.90;99.90;;;;;;5029312;28;20269;-88
2022/11/16 05:51:55;;;;;;;11.00;9.97;;;10.90;99.90;;;;;;5042876;28;20196;-86
2022/11/16 05:54:23;;;;;;;10.93;9.83;;;10.90;99.90;;;;;;5039899;28;20207;-85
2022/11/16 05:56:49;;;;;;;13.27;10.73;;;10.90;99.90;;;;;;5040801;28;20206;-85
2022/11/16 05:59:18;;;;;;;12.17;10.47;;;10.90;99.90;;;;;;5025922;28;20187;-84
2022/11/16 06:01:45;;;;;;;12.77;11.30;;;10.90;99.90;;;;;;5041765;28;20186;-88
2022/11/16 06:04:11;;;;;;;11.77;10.60;;;10.90;99.90;;;;;;5021459;28;20300;-86
2022/11/16 06:06:37;;;;;;;11.87;10.77;;;10.90;99.90;;;;;;5037302;28;20682;-86
2022/11/16 06:09:03;;;;;;;33.53;30.07;;;10.80;99.90;;;;;;5041064;28;20284;-87
2022/11/16 06:11:29;;;;;;;13.13;11.83;;;10.80;99.90;;;;;;5036179;28;20186;-86
2022/11/16 06:13:54;;;;;;;13.00;11.57;;;10.70;99.90;;;;;;5036920;28;20229;-88
2022/11/16 06:16:20;;;;;;;11.87;10.67;;;10.90;99.90;;;;;;5035498;28;20198;-87
2022/11/16 06:18:46;;;;;;;11.83;10.63;;;10.90;99.90;;;;;;5040869;28;20201;-88
2022/11/16 06:21:15;;;;;;;11.37;10.27;;;10.90;99.90;;;;;;5018981;28;20275;-88
2022/11/16 06:23:41;;;;;;;10.93;9.87;;;10.80;99.90;;;;;;5036357;28;20207;-86
2022/11/16 06:26:08;;;;;;;11.90;10.80;;;10.80;99.90;;;;;;5044529;28;20183;-87
2022/11/16 06:28:33;;;;;;;12.27;10.97;;;10.70;99.90;;;;;;5037314;28;20206;-86
2022/11/16 06:30:59;;;;;;;12.00;10.90;;;10.70;99.90;;;;;;5039848;28;20182;-89
2022/11/16 06:33:25;;;;;;;11.60;10.40;;;10.60;99.90;;;;;;5046899;28;20194;-88
2022/11/16 06:35:51;;;;;;;11.60;10.40;;;10.60;99.90;;;;;;5041650;28;20224;-88
2022/11/16 06:38:20;;;;;;;10.83;9.90;;;10.50;99.90;;;;;;5051666;28;20242;-84
2022/11/16 06:40:51;;;;;;;11.47;9.77;;;10.60;99.90;;;;;;5042113;28;20183;-86
2022/11/16 06:43:16;;;;;;;11.17;10.17;;;10.60;99.90;;;;;;5036552;28;20204;-86
2022/11/16 06:45:42;;;;;;;12.00;9.90;;;10.60;99.90;;;;;;5039314;28;20709;-86
2022/11/16 06:48:08;;;;;;;10.77;9.77;;;10.60;99.90;;;;;;5010314;28;20286;-87
2022/11/16 06:50:34;;;;;;;11.70;10.07;;;10.70;99.90;;;;;;5035920;28;20194;-90
2022/11/16 06:53:00;;;;;;;10.00;9.10;;;10.60;99.90;;;;;;5038846;28;20209;-86
2022/11/16 06:55:27;;;;;;;10.30;9.40;;;10.70;99.90;;;;;;5034565;28;20229;-85
2022/11/16 06:57:52;;;;;;;10.40;9.40;;;10.60;99.90;;;;;;5032434;28;20215;-89
2022/11/16 07:00:18;;;;;;;10.33;9.20;;;10.60;99.90;;;;;;5034925;28;20191;-88
2022/11/16 07:02:44;;;;;;;10.23;9.33;;;10.60;99.90;;;;;;5034635;28;20184;-92
2022/11/16 07:05:09;;;;;;;9.50;8.60;;;10.60;99.90;;;;;;5030514;28;20196;-86
2022/11/16 07:07:35;;;;;;;9.30;8.50;;;10.70;99.90;;;;;;5034393;28;20215;-86
2022/11/16 07:10:01;;;;;;;9.23;8.37;;;10.80;99.90;;;;;;5030930;28;20211;-88
2022/11/16 07:12:27;;;;;;;8.00;7.07;;;10.80;99.90;;;;;;5036802;28;20203;-90
2022/11/16 07:14:52;;;;;;;8.63;7.77;;;10.90;99.90;;;;;;5034982;28;20212;-90
2022/11/16 07:17:18;;;;;;;7.57;6.83;;;10.90;99.90;;;;;;5034537;28;20239;-90
2022/11/16 07:19:44;;;;;;;8.17;7.20;;;11.00;99.90;;;;;;5035758;28;20203;-87
2022/11/16 07:22:09;;;;;;;9.07;7.70;;;10.90;99.90;;;;;;5019226;28;20247;-86
2022/11/16 07:24:35;;;;;;;7.30;6.60;;;11.10;99.90;;;;;;5030829;28;20202;-85
2022/11/16 07:27:00;;;;;;;8.00;6.70;;;11.20;99.90;;;;;;5041639;28;20208;-85
2022/11/16 07:29:26;;;;;;;6.67;6.07;;;11.20;99.90;;;;;;5034792;28;20248;-87
2022/11/16 07:31:52;;;;;;;7.10;6.27;;;11.30;99.90;;;;;;5014530;28;20290;-87
2022/11/16 07:34:17;;;;;;;6.33;5.50;;;11.20;99.90;;;;;;5036082;28;20276;-90
2022/11/16 07:36:43;;;;;;;6.27;5.67;;;11.20;99.90;;;;;;5021381;28;20235;-88
2022/11/16 07:39:09;;;;;;;6.67;6.07;;;11.20;99.90;;;;;;5035755;28;20203;-86
2022/11/16 07:41:37;;;;;;;5.90;5.40;;;11.10;99.90;;;;;;5040117;28;20188;-84
2022/11/16 07:44:03;;;;;;;5.90;5.20;;;11.10;99.90;;;;;;5036359;28;20193;-87
2022/11/16 07:46:29;;;;;;;5.70;5.20;;;11.10;99.90;;;;;;5018142;28;20188;-89
2022/11/16 07:48:56;;;;;;;5.77;5.20;;;11.00;99.90;;;;;;5035393;28;20182;-87
2022/11/16 07:51:22;;;;;;;6.37;5.77;;;11.10;99.90;;;;;;5018493;28;20202;-87
2022/11/16 07:53:52;;;;;;;5.40;4.90;;;11.00;99.90;;;;;;5033439;28;20179;-87
2022/11/16 07:56:17;;;;;;;4.70;4.30;;;11.10;99.90;;;;;;5035904;28;20227;-88
2022/11/16 07:58:44;;;;;;;5.60;4.70;;;11.10;99.90;;;;;;5042448;28;20254;-90
2022/11/16 08:01:13;;;;;;;5.40;4.60;;;11.20;99.90;;;;;;5049009;28;20248;-89
2022/11/16 08:03:40;;;;;;;7.30;4.47;;;11.10;99.90;;;;;;5052993;28;20190;-92
2022/11/16 08:06:27;;;;;;;4.47;3.80;;;11.00;99.90;;;;;;5051137;28;20207;-87
2022/11/16 08:08:53;;;;;;;7.07;4.40;;;11.10;99.90;;;;;;5025371;28;20174;-88
2022/11/16 08:11:18;;;;;;;4.40;4.00;;;11.10;99.90;;;;;;5032601;28;20195;-88
2022/11/16 08:13:44;;;;;;;4.37;3.97;;;11.10;99.90;;;;;;5032141;28;20178;-86
2022/11/16 08:16:15;;;;;;;4.20;3.90;;;11.10;99.90;;;;;;5031603;28;20240;-88
2022/11/16 08:18:43;;;;;;;5.53;4.40;;;11.20;99.90;;;;;;5018514;28;20215;-90
2022/11/16 08:21:11;;;;;;;4.10;3.80;;;11.20;99.90;;;;;;5034859;28;20208;-88
2022/11/16 08:23:39;;;;;;;4.43;4.03;;;11.20;99.90;;;;;;5035172;28;20193;-89
2022/11/16 08:26:13;;;;;;;6.57;3.97;;;11.20;99.90;;;;;;5040465;28;20277;-90
2022/11/16 08:28:39;;;;;;;4.40;3.90;;;11.30;99.90;;;;;;5014593;28;20280;-89
2022/11/16 08:31:13;;;;;;;4.47;4.17;;;11.40;99.90;;;;;;5034897;28;20196;-88
2022/11/16 08:33:39;;;;;;;4.60;4.13;;;11.40;99.90;;;;;;5034521;28;20180;-85
2022/11/16 08:36:07;;;;;;;4.00;3.70;;;11.50;99.90;;;;;;5021201;28;20580;-87
2022/11/16 08:38:32;;;;;;;3.57;3.27;;;11.50;99.90;;;;;;5040675;28;20217;-90
2022/11/16 08:41:00;;;;;;;4.27;3.33;;;11.50;99.90;;;;;;5044035;28;20233;-92
2022/11/16 08:43:28;;;;;;;3.63;3.33;;;11.50;99.90;;;;;;5042491;28;20277;-88
2022/11/16 08:45:54;;;;;;;4.00;3.10;;;11.50;99.90;;;;;;5042102;28;20181;-88
2022/11/16 08:48:21;;;;;;;4.07;2.90;;;11.50;99.90;;;;;;5031970;28;20259;-88
2022/11/16 08:50:47;;;;;;;3.40;3.10;;;11.60;99.90;;;;;;5042046;28;20224;-89
2022/11/16 08:53:14;;;;;;;5.20;3.00;;;11.60;99.90;;;;;;5033368;28;20187;-87
2022/11/16 08:55:41;;;;;;;3.33;3.07;;;11.50;99.90;;;;;;5020555;28;20340;-88
2022/11/16 08:58:07;;;;;;;2.80;2.60;;;11.40;99.90;;;;;;5032069;28;20264;-90
2022/11/16 09:00:33;;;;;;;3.93;3.10;;;11.50;99.90;;;;;;5027393;28;20188;-86
2022/11/16 09:02:58;;;;;;;3.20;2.90;;;11.60;99.90;;;;;;5035628;28;20223;-89
2022/11/16 09:05:24;;;;;;;4.17;2.67;;;11.60;99.90;;;;;;5023373;28;20199;-86
2022/11/16 09:07:50;;;;;;;3.10;2.63;;;11.80;99.90;;;;;;5027201;28;20729;-90
2022/11/16 09:10:17;;;;;;;4.90;2.80;;;11.80;99.90;;;;;;5034226;28;20227;-86
2022/11/16 09:12:43;;;;;;;2.63;2.13;;;11.90;99.90;;;;;;5032061;28;20200;-86
2022/11/16 09:15:09;;;;;;;3.73;2.33;;;11.90;99.90;;;;;;5014806;28;20235;-88
2022/11/16 09:17:35;;;;;;;2.70;2.47;;;11.90;99.90;;;;;;5032730;28;20214;-85
2022/11/16 09:20:00;;;;;;;2.80;2.60;;;11.90;99.90;;;;;;5036138;28;20203;-85
2022/11/16 09:22:26;;;;;;;2.70;2.50;;;11.90;99.90;;;;;;5014850;28;20203;-87
2022/11/16 09:24:52;;;;;;;3.07;2.60;;;11.90;99.90;;;;;;5017275;28;20195;-88
2022/11/16 09:27:17;;;;;;;3.83;2.40;;;11.90;99.90;;;;;;5043761;28;20215;-87
2022/11/16 09:29:43;;;;;;;2.77;2.50;;;11.90;99.90;;;;;;5032497;28;20201;-86
2022/11/16 09:32:08;;;;;;;3.20;2.37;;;11.80;99.90;;;;;;5041294;28;20202;-87
2022/11/16 09:34:35;;;;;;;3.27;2.37;;;11.90;99.90;;;;;;5026640;28;20214;-87
2022/11/16 09:37:01;;;;;;;4.47;2.30;;;11.90;99.90;;;;;;5013244;28;20295;-83
2022/11/16 09:39:30;;;;;;;2.63;2.43;;;11.80;99.90;;;;;;5039857;28;20200;-84
2022/11/16 09:42:26;;;;;;;2.83;2.33;;;11.80;99.90;;;;;;5039234;28;20195;-86
2022/11/16 09:44:58;;;;;;;4.43;2.73;;;11.80;99.90;;;;;;5028567;28;20195;-86
2022/11/16 09:47:37;;;;;;;3.93;2.40;;;11.90;99.90;;;;;;5035366;28;20683;-86
2022/11/16 09:50:05;;;;;;;4.67;2.60;;;11.90;99.90;;;;;;5034158;28;20269;-90
2022/11/16 09:52:37;;;;;;;3.00;2.70;;;11.90;99.90;;;;;;5034748;28;20192;-88
2022/11/16 09:55:22;;;;;;;6.20;2.47;;;12.10;99.90;;;;;;5040441;28;20199;-85
2022/11/16 09:57:51;;;;;;;3.20;2.53;;;12.20;99.90;;;;;;5036561;28;20222;-84
2022/11/16 10:00:22;;;;;;;8.87;3.13;;;12.20;99.90;;;;;;5022624;28;20203;-84
2022/11/16 10:03:01;;;;;;;6.30;2.73;;;12.30;99.90;;;;;;5030299;28;20188;-84
2022/11/16 10:05:36;;;;;;;4.60;3.47;;;12.60;99.90;;;;;;5028403;28;20195;-83
2022/11/16 10:08:12;;;;;;;2.93;2.60;;;12.80;99.90;;;;;;5033143;28;20216;-86
2022/11/16 10:10:45;;;;;;;3.10;2.50;;;12.90;99.90;;;;;;5025455;28;20246;-87
2022/11/16 10:13:38;;;;;;;2.57;2.13;;;13.10;99.90;;;;;;5036898;28;20196;-87
2022/11/16 10:16:22;;;;;;;3.97;2.47;;;13.20;99.90;;;;;;5020465;28;20221;-85
2022/11/16 10:19:15;;;;;;;3.00;2.23;;;13.30;99.90;;;;;;5037065;28;20203;-86
2022/11/16 10:22:00;;;;;;;2.23;2.00;;;13.40;99.90;;;;;;5025664;28;20200;-86
2022/11/16 10:24:34;;;;;;;3.40;2.53;;;13.50;99.90;;;;;;5032622;28;20251;-85
2022/11/16 10:27:12;;;;;;;3.90;2.27;;;13.40;99.90;;;;;;5021598;28;20263;-86
2022/11/16 10:29:53;;;;;;;4.23;2.10;;;13.30;99.90;;;;;;5025210;28;20194;-88
2022/11/16 10:32:30;;;;;;;2.90;2.23;;;13.40;99.90;;;;;;5030913;28;20194;-89
2022/11/16 10:35:11;;;;;;;3.33;2.20;;;13.60;99.90;;;;;;5037278;28;20208;-85
2022/11/16 10:37:58;;;;;;;4.67;2.57;;;13.40;99.90;;;;;;5032849;28;20292;-87
2022/11/16 10:40:35;;;;;;;2.33;2.07;;;13.10;99.90;;;;;;5035195;28;20203;-85
2022/11/16 10:43:15;;;;;;;3.43;2.27;;;12.90;99.90;;;;;;5013621;28;20190;-84
2022/11/16 10:46:12;;;;;;;2.67;2.10;;;12.90;99.90;;;;;;5027798;28;20225;-90
2022/11/16 10:49:06;;;;;;;3.10;2.10;;;13.00;99.90;;;;;;5035787;28;20214;-86
2022/11/16 10:51:32;;;;;;;4.13;2.20;;;13.50;99.90;;;;;;5031303;28;20649;-84
2022/11/16 10:53:57;;;;;;;4.37;2.30;;;13.70;99.90;;;;;;5030031;28;20195;-86
2022/11/16 10:56:36;;;;;;;6.13;2.63;;;14.10;99.90;;;;;;5037990;28;20291;-84
2022/11/16 10:59:11;;;;;;;3.10;2.10;;;14.50;98.20;;;;;;5032776;28;20193;-86
2022/11/16 11:01:36;;;;;;;2.80;2.30;;;14.90;95.90;;;;;;5032186;28;20255;-85
2022/11/16 11:04:14;;;;;;;3.03;2.17;;;15.10;93.20;;;;;;5035545;28;20181;-88
2022/11/16 11:06:40;;;;;;;3.90;3.10;;;15.10;91.10;;;;;;5033425;28;20680;-84
2022/11/16 11:09:27;;;;;;;12.83;11.23;;;15.10;89.50;;;;;;5039616;28;20192;-84
2022/11/16 11:15:25;;;;;;;2.27;1.87;;;14.70;93.50;;;;;;5038677;28;20874;-84
2022/11/16 11:18:16;;;;;;;5.00;2.23;;;14.40;95.20;;;;;;5034159;28;20218;-84
2022/11/16 11:21:08;;;;;;;4.50;2.50;;;14.00;97.00;;;;;;5037418;28;20187;-83
2022/11/16 11:23:55;;;;;;;4.00;2.13;;;13.60;96.50;;;;;;5045580;28;20198;-86
2022/11/16 11:26:29;;;;;;;4.30;2.23;;;13.50;96.80;;;;;;5042163;28;20227;-85
2022/11/16 11:28:55;;;;;;;3.63;2.17;;;13.40;96.20;;;;;;5031146;28;20209;-84
2022/11/16 11:31:37;;;;;;;2.20;2.00;;;13.60;97.90;;;;;;5034983;28;20194;-83
2022/11/16 11:34:09;;;;;;;3.07;1.93;;;13.80;95.60;;;;;;5028956;28;20611;-84
2022/11/16 11:36:39;;;;;;;3.63;2.20;;;13.80;94.70;;;;;;5056623;28;20195;-88
2022/11/16 11:39:27;;;;;;;2.00;1.90;;;14.00;95.20;;;;;;5036196;28;20214;-89
2022/11/16 11:42:22;;;;;;;5.00;2.07;;;13.90;95.30;;;;;;5036729;28;20186;-87
2022/11/16 11:44:58;;;;;;;2.50;2.00;;;14.40;92.40;;;;;;5031978;28;20196;-88
2022/11/16 11:47:38;;;;;;;2.87;2.23;;;14.30;91.40;;;;;;5032222;28;20285;-90
2022/11/16 11:50:18;;;;;;;2.53;2.00;;;14.70;87.80;;;;;;5041099;28;20241;-84
2022/11/16 11:53:17;;;;;;;2.97;2.40;;;15.20;86.60;;;;;;5040306;28;20200;-92
2022/11/16 11:55:43;;;;;;;2.30;1.97;;;15.30;86.40;;;;;;5037931;28;20200;-86
2022/11/16 11:58:15;;;;;;;4.43;2.27;;;15.20;86.70;;;;;;5037962;28;20615;-84
2022/11/16 12:01:14;;;;;;;3.67;2.23;;;15.50;84.70;;;;;;5033907;28;20190;-86
2022/11/16 12:04:00;;;;;;;2.20;2.00;;;15.00;87.90;;;;;;5030331;28;20181;-86
2022/11/16 12:07:05;;;;;;;3.17;2.07;;;15.20;85.10;;;;;;4999483;28;20211;-84
2022/11/16 12:09:45;;;;;;;3.30;2.10;;;15.40;84.40;;;;;;5007759;28;20197;-86
2022/11/16 12:12:42;;;;;;;2.33;1.90;;;15.40;86.10;;;;;;5030658;28;20190;-84
2022/11/16 12:15:26;;;;;;;9.40;8.20;;;15.70;82.60;;;;;;5011535;28;20670;-86
2022/11/16 12:17:57;;;;;;;4.10;2.57;;;16.00;81.00;;;;;;5031024;28;20290;-86
2022/11/16 12:20:58;;;;;;;2.63;2.00;;;16.20;80.50;;;;;;5033574;28;20191;-83
2022/11/16 12:23:30;;;;;;;3.13;2.20;;;16.20;79.60;;;;;;5031346;28;20187;-85
2022/11/16 12:26:30;;;;;;;5.87;2.40;;;16.00;81.70;;;;;;5030935;28;20189;-86
2022/11/16 12:29:33;;;;;;;4.00;2.40;;;16.10;79.00;;;;;;5028672;28;20185;-85
2022/11/16 12:32:33;;;;;;;3.80;2.10;;;15.70;82.00;;;;;;5023491;28;20196;-86
2022/11/16 12:35:16;;;;;;;2.87;2.10;;;15.70;81.90;;;;;;5029958;28;20220;-86
2022/11/16 12:37:48;;;;;;;7.60;6.30;;;15.90;82.80;;;;;;5033329;28;20215;-85
2022/11/16 12:40:33;;;;;;;6.03;3.83;;;16.10;78.90;;;;;;5035728;28;20634;-86
2022/11/16 12:43:02;;;;;;;4.50;2.10;;;15.80;80.50;;;;;;5045437;28;20187;-85
2022/11/16 12:45:46;;;;;;;3.57;1.80;;;15.30;82.00;;;;;;5028410;28;20203;-85
2022/11/16 12:48:30;;;;;;;5.47;1.93;;;15.20;82.20;;;;;;5022664;28;20236;-86
2022/11/16 12:51:43;;;;;;;6.17;2.97;;;15.30;81.70;;;;;;5028684;28;20204;-85
2022/11/16 12:54:33;;;;;;;3.60;2.33;;;15.80;78.00;;;;;;5023735;28;20201;-86
2022/11/16 12:57:26;;;;;;;4.57;2.30;;;16.00;76.70;;;;;;5028148;28;20211;-85
2022/11/16 13:00:12;;;;;;;2.67;1.77;;;15.90;76.50;;;;;;5031342;28;20185;-86
2022/11/16 13:02:43;;;;;;;4.47;2.10;;;16.00;75.10;;;;;;5035515;28;20286;-86
2022/11/16 13:05:14;;;;;;;3.20;2.23;;;16.00;76.40;;;;;;5036166;28;20197;-86
2022/11/16 13:07:42;;;;;;;3.83;2.20;;;16.00;72.90;;;;;;5028310;28;20232;-88
2022/11/16 13:10:32;;;;;;;6.07;4.47;;;16.10;75.20;;;;;;5029060;28;20589;-86
2022/11/16 13:13:09;;;;;;;4.90;4.43;;;16.20;75.60;;;;;;5026908;28;20287;-88
2022/11/16 13:15:38;;;;;;;3.00;2.23;;;16.60;73.10;;;;;;5032039;28;20219;-88
2022/11/16 13:18:07;;;;;;;4.93;2.63;;;16.60;75.20;;;;;;5037390;28;20550;-87
2022/11/16 13:21:01;;;;;;;4.47;2.57;;;16.20;77.00;;;;;;5025255;28;20189;-86
2022/11/16 13:23:29;;;;;;;3.00;2.20;;;16.20;73.70;;;;;;5030442;28;20184;-86
2022/11/16 13:26:09;;;;;;;3.70;2.00;;;16.10;72.30;;;;;;5033221;28;20244;-86
2022/11/16 13:28:52;;;;;;;3.70;2.10;;;16.00;72.00;;;;;;5033950;28;21031;-88
2022/11/16 13:31:20;;;;;;;3.73;2.00;;;16.20;73.10;;;;;;5028113;28;20263;-85
2022/11/16 13:34:00;;;;;;;3.47;2.33;;;16.20;68.80;;;;;;5025802;28;20188;-85
2022/11/16 13:36:31;;;;;;;3.03;2.40;;;16.00;71.20;;;;;;5021685;28;20291;-87
2022/11/16 13:38:57;;;;;;;6.23;2.30;;;16.00;73.20;;;;;;5027098;28;20209;-86
2022/11/16 13:41:44;;;;;;;3.47;1.90;;;15.90;72.20;;;;;;5021610;28;20662;-85